VRGK1: Verdigris River on 180th Road W of Virgil KS

Data processed at Mon Jan 21 2019 20:32


All information presented herein is the property of the government of the United States of America and may be revised or deleted at any time without prior notice.
Dissemination of this information without the expressed written consent of the Public Affairs Office, Tulsa District U.S. Army Corps of Engineers is strictly prohibited.
These data are gathered electronically and, as presented, have not undergone any form of quality control. These data are not guaranteed to be valid or correct.
Go to home page.
Go to station list.
Go to home page.

Downstream station:


Previous Day
Next Day
Current Day
    
SHEF ID:       VRGK1     VERDIGRIS R NR VIRGIL, KS
STATION TYPE:  

               PRECIP     STAGE  RIV-FLOW  BAT-LOAD
                   in        ft       cfs      volt
              Ccp-Rev   Ccp-Rev   Ccp-Rev   Ccp-Rev
(US/Central)
01/21 00:00      0.00      9.37       533     12.65
01/21 01:00      0.00      9.38       536     12.65
01/21 02:00      0.00      9.38       536     12.57
01/21 03:00      0.00      9.34       523     12.57
01/21 04:00      0.00      9.25       493     12.57
01/21 05:00      0.00      9.14       456     12.57
01/21 06:00      0.00      9.01       414     12.49
01/21 07:00      0.00      8.96       397     12.49
01/21 08:00      0.00      8.98       404     12.49
01/21 09:00      0.00      8.99       407     12.49
01/21 10:00      0.00      8.99       407     12.65
01/21 11:00      0.00      8.93       388     13.13
01/21 12:00      0.00      8.92       385     13.29
01/21 13:00      0.00      8.96       397     13.29
01/21 14:00      0.00      9.02       417     13.29
01/21 15:00      0.00      9.05       427     13.44
01/21 16:00      0.01      9.08       436     13.44
01/21 17:00      0.01      9.09       440     13.13
01/21 18:00      0.00      9.10       443     12.97
01/21 19:00      0.00      9.05       427     12.81
01/21 20:00      0.01      9.08       436     12.81
01/21 21:00      ----      ----      ----      ----
01/21 22:00      ----      ----      ----      ----
01/21 23:00      ----      ----      ----      ----